createdAt,value
2022-07-28T00:00:34.660Z,3.80
2022-07-28T00:03:04.807Z,4.20
2022-07-28T00:05:34.506Z,4.00
2022-07-28T00:08:03.977Z,4.32
2022-07-28T00:10:33.234Z,3.95
2022-07-28T00:13:03.924Z,3.70
2022-07-28T00:15:36.273Z,3.38
2022-07-28T00:18:08.453Z,3.58
2022-07-28T00:20:37.717Z,3.95
2022-07-28T00:23:07.580Z,3.83
2022-07-28T00:25:36.995Z,4.13
2022-07-28T00:28:06.331Z,3.92
2022-07-28T00:30:35.456Z,4.30
2022-07-28T00:33:05.022Z,3.70
2022-07-28T00:35:34.389Z,4.03
2022-07-28T00:38:03.541Z,4.00
2022-07-28T00:40:51.568Z,3.70
2022-07-28T00:43:21.157Z,3.55
2022-07-28T00:45:51.354Z,3.50
2022-07-28T00:48:20.460Z,4.47
2022-07-28T00:50:50.170Z,3.40
2022-07-28T00:53:19.765Z,3.95
2022-07-28T00:56:04.117Z,4.07
2022-07-28T00:58:37.594Z,3.90
2022-07-28T01:01:08.785Z,4.30
2022-07-28T01:03:41.832Z,4.30
2022-07-28T01:06:35.461Z,3.40
2022-07-28T01:09:41.342Z,4.03
2022-07-28T01:12:28.398Z,5.40
2022-07-28T01:15:17.617Z,4.15
2022-07-28T01:18:00.320Z,4.03
2022-07-28T01:21:00.954Z,4.80
2022-07-28T01:23:33.420Z,3.97
2022-07-28T01:26:14.906Z,4.32
2022-07-28T01:29:03.480Z,3.97
2022-07-28T01:31:42.119Z,4.25
2022-07-28T01:34:30.726Z,4.15
2022-07-28T01:37:06.208Z,4.00
2022-07-28T01:42:09.436Z,3.80
2022-07-28T01:44:45.168Z,4.32
2022-07-28T01:47:16.302Z,4.22
2022-07-28T01:49:48.213Z,4.38
2022-07-28T01:52:20.196Z,3.75
2022-07-28T01:54:52.964Z,4.00
2022-07-28T01:57:26.934Z,4.47
2022-07-28T01:59:58.251Z,3.75
2022-07-28T02:02:30.685Z,3.88
2022-07-28T02:05:03.460Z,4.15
2022-07-28T02:07:34.441Z,3.75
2022-07-28T02:10:06.351Z,3.65
2022-07-28T02:12:39.401Z,4.18
2022-07-28T02:15:13.695Z,3.85
2022-07-28T02:17:46.216Z,3.58
2022-07-28T02:20:17.471Z,3.90
2022-07-28T02:22:51.257Z,4.22
2022-07-28T02:25:22.731Z,4.10
2022-07-28T02:28:07.764Z,3.88
2022-07-28T02:30:50.689Z,3.90
2022-07-28T02:34:00.338Z,4.32
2022-07-28T02:36:28.013Z,3.97
2022-07-28T02:39:07.544Z,4.00
2022-07-28T02:41:43.236Z,4.22
2022-07-28T02:46:53.200Z,3.67
2022-07-28T02:49:31.222Z,4.13
2022-07-28T02:52:03.363Z,3.80
2022-07-28T02:54:34.410Z,4.10
2022-07-28T02:57:05.374Z,3.92
2022-07-28T02:59:36.519Z,3.70
2022-07-28T03:02:06.061Z,3.60
2022-07-28T03:04:54.606Z,3.70
2022-07-28T03:07:24.245Z,3.10
2022-07-28T03:09:53.831Z,3.53
2022-07-28T03:12:23.217Z,3.55
2022-07-28T03:14:52.749Z,3.45
2022-07-28T03:17:22.408Z,3.30
2022-07-28T03:19:52.001Z,3.78
2022-07-28T03:22:21.149Z,3.38
2022-07-28T03:24:57.579Z,3.63
2022-07-28T03:27:38.017Z,3.60
2022-07-28T03:30:10.719Z,3.72
2022-07-28T03:32:44.603Z,3.72
2022-07-28T03:35:15.471Z,3.58
2022-07-28T03:37:51.200Z,3.33
2022-07-28T03:42:53.077Z,4.22
2022-07-28T03:45:23.155Z,3.78
2022-07-28T03:47:58.879Z,3.80
2022-07-28T03:50:33.581Z,4.13
2022-07-28T03:53:07.451Z,3.63
2022-07-28T03:55:36.981Z,4.20
2022-07-28T03:58:09.254Z,3.80
2022-07-28T04:00:38.700Z,3.72
2022-07-28T04:03:35.832Z,3.80
2022-07-28T04:05:59.075Z,3.88
2022-07-28T04:08:28.909Z,3.58
2022-07-28T04:10:58.111Z,4.45
2022-07-28T04:13:27.886Z,3.63
2022-07-28T04:15:57.338Z,4.00
2022-07-28T04:18:26.479Z,4.03
2022-07-28T04:20:56.869Z,3.78
2022-07-28T04:23:27.268Z,3.53
2022-07-28T04:25:56.572Z,4.68
2022-07-28T04:28:26.267Z,4.20
2022-07-28T04:30:58.589Z,3.85
2022-07-28T04:33:28.053Z,3.78
2022-07-28T04:36:00.808Z,4.20
2022-07-28T04:38:30.145Z,4.20
2022-07-28T04:40:59.510Z,4.28
2022-07-28T04:43:28.860Z,3.85
2022-07-28T04:45:59.882Z,3.70
2022-07-28T04:48:29.520Z,3.88
2022-07-28T04:50:58.876Z,5.03
2022-07-28T04:53:29.410Z,4.05
2022-07-28T04:56:04.407Z,3.70
2022-07-28T04:58:34.251Z,4.50
2022-07-28T05:01:04.535Z,4.05
2022-07-28T05:03:36.344Z,4.25
2022-07-28T05:06:06.155Z,4.22
2022-07-28T05:08:35.594Z,5.50
2022-07-28T05:11:05.217Z,4.47
2022-07-28T05:13:35.071Z,4.72
2022-07-28T05:16:05.177Z,4.15
2022-07-28T05:18:34.475Z,4.00
2022-07-28T05:21:03.591Z,4.25
2022-07-28T05:23:32.789Z,4.32
2022-07-28T05:26:05.672Z,4.28
2022-07-28T05:28:35.583Z,4.60
2022-07-28T05:31:05.412Z,4.40
2022-07-28T05:33:34.717Z,4.40
2022-07-28T05:36:04.106Z,4.40
2022-07-28T05:38:35.770Z,3.80
2022-07-28T05:41:04.966Z,4.63
2022-07-28T05:43:38.226Z,4.28
2022-07-28T05:46:07.507Z,4.50
2022-07-28T05:48:37.294Z,4.05
2022-07-28T05:51:08.560Z,4.18
2022-07-28T05:53:37.612Z,4.45
2022-07-28T05:56:07.759Z,3.83
2022-07-28T05:58:36.903Z,3.92
2022-07-28T06:01:06.415Z,4.18
2022-07-28T06:03:41.498Z,3.58
2022-07-28T06:06:15.842Z,3.78
2022-07-28T06:08:48.043Z,3.45
2022-07-28T06:11:21.661Z,3.03
2022-07-28T06:13:53.181Z,3.63
2022-07-28T06:16:23.836Z,3.28
2022-07-28T06:18:53.321Z,3.50
2022-07-28T06:21:25.164Z,3.88
2022-07-28T06:23:54.369Z,3.45
2022-07-28T06:26:23.821Z,4.00
2022-07-28T06:28:53.496Z,3.80
2022-07-28T06:31:22.657Z,4.07
2022-07-28T06:33:51.897Z,3.92
2022-07-28T06:36:21.105Z,3.85
2022-07-28T06:38:50.583Z,3.45
2022-07-28T06:41:19.809Z,3.65
2022-07-28T06:43:48.942Z,3.60
2022-07-28T06:46:20.364Z,3.35
2022-07-28T06:48:50.112Z,3.30
2022-07-28T06:51:20.808Z,3.30
2022-07-28T06:53:49.992Z,3.67
2022-07-28T06:56:21.552Z,3.05
2022-07-28T06:58:52.194Z,3.33
2022-07-28T07:01:24.395Z,2.38
2022-07-28T07:03:53.695Z,3.00
2022-07-28T07:06:23.129Z,2.75
2022-07-28T07:08:52.610Z,2.78
2022-07-28T07:11:22.679Z,2.95
2022-07-28T07:13:55.006Z,3.92
2022-07-28T07:16:25.216Z,3.13
2022-07-28T07:18:54.733Z,3.17
2022-07-28T07:21:23.824Z,3.20
2022-07-28T07:23:55.519Z,3.40
2022-07-28T07:26:24.817Z,4.10
2022-07-28T07:28:55.330Z,3.90
2022-07-28T07:31:24.444Z,4.13
2022-07-28T07:33:53.521Z,3.90
2022-07-28T07:36:23.381Z,3.60
2022-07-28T07:38:53.519Z,3.95
2022-07-28T07:41:23.544Z,4.15
2022-07-28T07:43:55.690Z,3.88
2022-07-28T07:46:24.846Z,3.90
2022-07-28T07:48:54.050Z,3.60
2022-07-28T07:51:26.171Z,3.78
2022-07-28T07:53:55.309Z,3.75
2022-07-28T07:56:24.348Z,4.13
2022-07-28T07:58:57.045Z,3.28
2022-07-28T08:01:26.538Z,3.47
2022-07-28T08:03:55.693Z,3.10
2022-07-28T08:06:26.211Z,2.90
2022-07-28T08:08:56.836Z,2.90
2022-07-28T08:11:25.911Z,3.10
2022-07-28T08:13:55.176Z,3.42
2022-07-28T08:16:24.290Z,3.67
2022-07-28T08:18:54.449Z,4.18
2022-07-28T08:21:23.580Z,3.97
2022-07-28T08:23:53.505Z,3.47
2022-07-28T08:26:23.268Z,4.28
2022-07-28T08:28:53.244Z,3.95
2022-07-28T08:31:25.161Z,3.50
2022-07-28T08:33:59.315Z,4.32
2022-07-28T08:36:33.472Z,3.70
2022-07-28T08:39:29.432Z,3.80
2022-07-28T08:42:08.040Z,3.40
2022-07-28T08:44:53.944Z,3.13
2022-07-28T08:47:23.672Z,3.10
2022-07-28T08:50:04.097Z,2.63
2022-07-28T08:52:34.245Z,2.83
2022-07-28T08:55:09.981Z,3.05
2022-07-28T08:57:43.757Z,6.35
2022-07-28T09:00:13.640Z,3.15
2022-07-28T09:02:52.237Z,2.90
2022-07-28T09:05:22.992Z,2.90
2022-07-28T09:07:55.976Z,2.72
2022-07-28T09:10:25.546Z,2.60
2022-07-28T09:12:54.896Z,2.65
2022-07-28T09:15:24.206Z,3.05
2022-07-28T09:17:53.213Z,2.85
2022-07-28T09:20:22.537Z,3.15
2022-07-28T09:23:00.560Z,2.97
2022-07-28T09:25:31.667Z,3.70
2022-07-28T09:28:15.432Z,2.63
2022-07-28T09:30:54.522Z,3.75
2022-07-28T09:33:42.294Z,3.38
2022-07-28T09:36:17.212Z,3.72
2022-07-28T09:38:47.007Z,3.47
2022-07-28T09:41:19.481Z,3.38
2022-07-28T09:43:54.478Z,3.40
2022-07-28T09:46:29.740Z,3.35
2022-07-28T09:49:03.639Z,3.50
2022-07-28T09:51:36.800Z,3.15
2022-07-28T09:54:18.555Z,3.72
2022-07-28T09:56:47.853Z,3.45
2022-07-28T09:59:18.956Z,3.83
2022-07-28T10:01:53.333Z,3.63
2022-07-28T10:04:34.274Z,3.47
2022-07-28T10:07:13.673Z,3.78
2022-07-28T10:09:43.236Z,3.50
2022-07-28T10:12:16.035Z,4.13
2022-07-28T10:14:47.180Z,3.53
2022-07-28T10:17:34.068Z,3.22
2022-07-28T10:22:43.136Z,3.10
2022-07-28T10:25:15.611Z,2.90
2022-07-28T10:27:49.243Z,3.22
2022-07-28T10:30:18.390Z,2.90
2022-07-28T10:32:47.701Z,3.03
2022-07-28T10:35:19.062Z,3.25
2022-07-28T10:38:01.491Z,3.25
2022-07-28T10:40:41.882Z,3.17
2022-07-28T10:43:11.864Z,3.42
2022-07-28T10:46:04.498Z,2.95
2022-07-28T10:48:32.106Z,3.03
2022-07-28T10:51:02.877Z,3.28
2022-07-28T10:53:59.381Z,3.22
2022-07-28T10:56:30.581Z,2.75
2022-07-28T10:59:13.013Z,3.28
2022-07-28T11:01:49.016Z,2.97
2022-07-28T11:04:49.793Z,3.15
2022-07-28T11:07:20.863Z,3.13
2022-07-28T11:09:51.701Z,2.80
2022-07-28T11:12:48.190Z,2.60
2022-07-28T11:15:34.808Z,3.13
2022-07-28T11:18:11.427Z,2.92
2022-07-28T11:20:53.571Z,2.80
2022-07-28T11:23:46.881Z,3.00
2022-07-28T11:26:26.213Z,2.90
2022-07-28T11:29:05.051Z,3.08
2022-07-28T11:31:46.498Z,3.25
2022-07-28T11:34:26.312Z,2.95
2022-07-28T11:37:08.629Z,2.88
2022-07-28T11:39:43.078Z,2.88
2022-07-28T11:42:29.817Z,2.97
2022-07-28T11:45:24.232Z,2.70
2022-07-28T11:48:24.336Z,2.83
2022-07-28T11:51:06.003Z,2.58
2022-07-28T11:53:38.530Z,2.83
2022-07-28T11:56:10.411Z,3.13
2022-07-28T11:58:40.264Z,2.65
2022-07-28T12:01:18.904Z,3.00
2022-07-28T12:03:56.190Z,2.88
2022-07-28T12:06:35.642Z,2.78
2022-07-28T12:09:07.934Z,2.80
2022-07-28T12:11:43.005Z,3.08
2022-07-28T12:14:17.762Z,2.75
2022-07-28T12:16:51.803Z,3.00
2022-07-28T12:19:22.000Z,3.00
2022-07-28T12:21:56.331Z,2.72
2022-07-28T12:24:29.730Z,3.00
2022-07-28T12:27:04.389Z,3.33
2022-07-28T12:29:36.159Z,2.90
2022-07-28T12:32:07.626Z,2.83
2022-07-28T12:34:38.606Z,2.97
2022-07-28T12:37:13.169Z,3.13
2022-07-28T12:39:44.074Z,2.90
2022-07-28T12:42:14.126Z,3.00
2022-07-28T12:44:45.267Z,3.08
2022-07-28T12:47:16.820Z,2.85
2022-07-28T12:49:48.759Z,2.67
2022-07-28T12:52:22.985Z,3.00
2022-07-28T12:54:55.648Z,2.50
2022-07-28T12:57:50.404Z,2.78
2022-07-28T13:00:26.286Z,2.80
2022-07-28T13:02:58.408Z,3.27
2022-07-28T13:05:58.778Z,2.90
2022-07-28T13:08:29.502Z,3.08
2022-07-28T13:10:59.390Z,2.97
2022-07-28T13:13:29.180Z,3.30
2022-07-28T13:16:18.336Z,3.42
2022-07-28T13:18:59.069Z,3.17
2022-07-28T13:21:58.595Z,3.13
2022-07-28T13:24:30.593Z,3.08
2022-07-28T13:27:00.223Z,3.00
2022-07-28T13:29:33.725Z,3.08
2022-07-28T13:32:03.015Z,3.28
2022-07-28T13:34:32.238Z,3.17
2022-07-28T13:37:01.854Z,2.90
2022-07-28T13:39:31.128Z,3.42
2022-07-28T13:42:00.269Z,3.03
2022-07-28T13:44:36.711Z,2.78
2022-07-28T13:47:07.360Z,3.10
2022-07-28T13:49:38.603Z,2.80
2022-07-28T13:52:13.261Z,3.15
2022-07-28T13:54:42.573Z,3.22
2022-07-28T13:57:11.704Z,2.80
2022-07-28T13:59:40.981Z,3.10
2022-07-28T14:02:15.542Z,2.80
2022-07-28T14:04:50.354Z,3.03
2022-07-28T14:07:20.736Z,2.72
2022-07-28T14:09:54.010Z,3.17
2022-07-28T14:12:23.400Z,2.45
2022-07-28T14:14:54.797Z,3.67
2022-07-28T14:17:44.868Z,3.00
2022-07-28T14:20:14.683Z,3.20
2022-07-28T14:22:46.648Z,3.17
2022-07-28T14:25:20.827Z,3.13
2022-07-28T14:27:51.739Z,3.00
2022-07-28T14:30:22.586Z,3.03
2022-07-28T14:32:51.737Z,3.30
2022-07-28T14:35:21.410Z,2.92
2022-07-28T14:40:41.369Z,2.80
2022-07-28T14:43:11.020Z,3.00
2022-07-28T14:45:51.210Z,3.08
2022-07-28T14:48:30.337Z,3.20
2022-07-28T14:51:00.207Z,3.10
2022-07-28T14:53:29.261Z,3.08
2022-07-28T14:55:59.137Z,3.22
2022-07-28T14:58:28.184Z,3.20
2022-07-28T15:00:57.250Z,3.00
2022-07-28T15:03:35.678Z,3.38
2022-07-28T15:06:06.107Z,3.47
2022-07-28T15:08:35.263Z,3.47
2022-07-28T15:11:04.386Z,3.00
2022-07-28T15:13:33.595Z,3.45
2022-07-28T15:16:03.989Z,3.72
2022-07-28T15:18:33.169Z,3.20
2022-07-28T15:21:03.692Z,3.42
2022-07-28T15:23:33.195Z,3.33
2022-07-28T15:26:02.447Z,3.25
2022-07-28T15:28:32.311Z,4.15
2022-07-28T15:31:05.459Z,2.92
2022-07-28T15:33:45.460Z,3.28
2022-07-28T15:36:17.304Z,3.30
2022-07-28T15:38:48.948Z,3.95
2022-07-28T15:41:20.517Z,3.50
2022-07-28T15:43:49.540Z,3.47
2022-07-28T15:46:18.784Z,3.38
2022-07-28T15:49:10.684Z,3.17
2022-07-28T15:51:40.990Z,3.47
2022-07-28T15:54:10.269Z,3.03
2022-07-28T15:56:39.367Z,3.00
2022-07-28T15:59:08.958Z,2.88
2022-07-28T16:01:41.984Z,3.25
2022-07-28T16:04:14.443Z,3.63
2022-07-28T16:07:01.880Z,2.67
2022-07-28T16:09:46.385Z,3.42
2022-07-28T16:12:16.439Z,3.53
2022-07-28T16:14:45.821Z,3.55
2022-07-28T16:17:15.636Z,3.55
2022-07-28T16:19:50.017Z,3.17
2022-07-28T16:22:20.723Z,3.10
2022-07-28T16:24:51.991Z,3.33
2022-07-28T16:27:21.528Z,3.60
2022-07-28T16:29:50.681Z,3.25
2022-07-28T16:32:20.054Z,3.28
2022-07-28T16:34:49.981Z,3.25
2022-07-28T16:37:19.772Z,3.83
2022-07-28T16:39:49.468Z,3.45
2022-07-28T16:42:18.810Z,3.65
2022-07-28T16:44:48.243Z,4.00
2022-07-28T16:47:17.706Z,3.80
2022-07-28T16:49:47.418Z,4.00
2022-07-28T16:52:16.950Z,3.38
2022-07-28T16:54:47.741Z,2.95
2022-07-28T16:57:17.038Z,3.97
2022-07-28T16:59:48.393Z,3.30
2022-07-28T17:02:19.166Z,3.75
2022-07-28T17:04:49.007Z,4.15
2022-07-28T17:07:19.349Z,4.15
2022-07-28T17:09:48.534Z,4.25
2022-07-28T17:12:17.729Z,4.30
2022-07-28T17:14:46.906Z,4.63
2022-07-28T17:17:16.310Z,3.90
2022-07-28T17:19:47.058Z,4.38
2022-07-28T17:22:16.697Z,4.57
2022-07-28T17:24:45.721Z,4.30
2022-07-28T17:30:04.826Z,3.85
2022-07-28T17:32:33.870Z,4.93
2022-07-28T17:35:03.172Z,3.95
2022-07-28T17:37:32.451Z,5.50
2022-07-28T17:40:04.598Z,5.93
2022-07-28T17:42:35.345Z,4.85
2022-07-28T17:45:04.810Z,4.35
2022-07-28T17:47:35.820Z,5.07
2022-07-28T17:50:08.118Z,5.50
2022-07-28T17:52:37.603Z,5.10
2022-07-28T17:55:25.494Z,4.95
2022-07-28T17:57:57.966Z,4.57
2022-07-28T18:00:27.165Z,5.28
2022-07-28T18:02:56.210Z,4.95
2022-07-28T18:05:25.651Z,5.10
2022-07-28T18:07:59.087Z,5.15
2022-07-28T18:10:30.136Z,4.47
2022-07-28T18:12:59.602Z,5.10
2022-07-28T18:15:30.751Z,5.20
2022-07-28T18:18:00.803Z,5.03
2022-07-28T18:20:30.714Z,5.20
2022-07-28T18:23:01.073Z,4.85
2022-07-28T18:25:30.403Z,4.70
2022-07-28T18:27:59.463Z,4.90
2022-07-28T18:30:28.749Z,4.65
2022-07-28T18:32:57.837Z,4.60
2022-07-28T18:35:27.004Z,5.13
2022-07-28T18:37:56.263Z,4.80
2022-07-28T18:40:26.163Z,5.15
2022-07-28T18:42:55.479Z,5.03
2022-07-28T18:45:27.585Z,4.97
2022-07-28T18:47:59.613Z,5.28
2022-07-28T18:50:31.776Z,4.63
2022-07-28T18:53:04.130Z,4.88
2022-07-28T18:55:33.455Z,4.30
2022-07-28T18:58:02.469Z,5.00
2022-07-28T19:00:31.540Z,4.60
2022-07-28T19:03:01.865Z,4.40
2022-07-28T19:05:36.348Z,4.82
2022-07-28T19:08:06.911Z,4.80
2022-07-28T19:10:36.080Z,4.63
2022-07-28T19:13:05.415Z,4.85
2022-07-28T19:15:39.435Z,4.65
2022-07-28T19:18:11.142Z,4.70
2022-07-28T19:20:41.431Z,4.65
2022-07-28T19:23:10.469Z,4.32
2022-07-28T19:25:43.187Z,4.50
2022-07-28T19:28:12.952Z,4.72
2022-07-28T19:30:42.209Z,4.18
2022-07-28T19:33:14.682Z,4.28
2022-07-28T19:35:48.011Z,4.35
2022-07-28T19:38:17.141Z,4.15
2022-07-28T19:40:46.335Z,4.18
2022-07-28T19:43:15.362Z,4.20
2022-07-28T19:45:44.698Z,4.82
2022-07-28T19:48:13.933Z,4.55
2022-07-28T19:50:50.837Z,4.32
2022-07-28T19:53:25.160Z,3.95
2022-07-28T19:56:01.075Z,3.90
2022-07-28T19:58:30.986Z,4.28
2022-07-28T20:01:00.309Z,3.90
2022-07-28T20:04:01.090Z,4.45
2022-07-28T20:06:24.949Z,3.78
2022-07-28T20:08:55.322Z,3.75
2022-07-28T20:11:25.113Z,4.32
2022-07-28T20:13:55.095Z,4.10
2022-07-28T20:16:25.508Z,3.88
2022-07-28T20:18:55.693Z,3.60
2022-07-28T20:21:26.996Z,4.07
2022-07-28T20:23:57.949Z,3.63
2022-07-28T20:26:27.617Z,4.03
2022-07-28T20:29:02.673Z,3.70
2022-07-28T20:31:33.165Z,3.83
2022-07-28T20:34:07.689Z,3.38
2022-07-28T20:36:37.274Z,3.55
2022-07-28T20:39:21.395Z,3.60
2022-07-28T20:41:55.941Z,3.40
2022-07-28T20:44:29.519Z,3.80
2022-07-28T20:47:01.196Z,3.70
2022-07-28T20:49:31.087Z,3.45
2022-07-28T20:52:00.642Z,3.42
2022-07-28T20:54:29.655Z,3.42
2022-07-28T20:56:58.957Z,3.80
2022-07-28T20:59:28.275Z,3.72
2022-07-28T21:01:57.896Z,3.50
2022-07-28T21:04:28.128Z,3.33
2022-07-28T21:07:02.136Z,3.75
2022-07-28T21:09:33.252Z,3.85
2022-07-28T21:12:02.497Z,3.80
2022-07-28T21:14:33.413Z,3.50
2022-07-28T21:17:03.508Z,3.95
2022-07-28T21:19:33.976Z,3.50
2022-07-28T21:22:03.338Z,3.33
2022-07-28T21:24:32.498Z,3.38
2022-07-28T21:27:02.138Z,3.13
2022-07-28T21:29:31.829Z,3.58
2022-07-28T21:32:05.124Z,2.95
2022-07-28T21:34:36.081Z,3.35
2022-07-28T21:37:06.399Z,3.20
2022-07-28T21:39:36.020Z,3.22
2022-07-28T21:42:08.161Z,3.55
2022-07-28T21:44:38.774Z,3.17
2022-07-28T21:47:07.952Z,3.03
2022-07-28T21:49:37.378Z,3.65
2022-07-28T21:52:06.848Z,3.35
2022-07-28T21:54:38.687Z,3.45
2022-07-28T21:57:15.109Z,5.45
2022-07-28T21:59:55.055Z,3.30
2022-07-28T22:02:25.165Z,3.50
2022-07-28T22:04:56.907Z,3.70
2022-07-28T22:07:26.268Z,3.50
2022-07-28T22:09:55.253Z,3.70
2022-07-28T22:12:24.964Z,3.30
2022-07-28T22:14:54.224Z,4.15
2022-07-28T22:17:23.338Z,3.13
2022-07-28T22:19:53.311Z,3.13
2022-07-28T22:22:22.776Z,3.40
2022-07-28T22:24:52.157Z,2.83
2022-07-28T22:27:21.485Z,3.33
2022-07-28T22:29:52.043Z,3.47
2022-07-28T22:32:26.739Z,3.00
2022-07-28T22:35:01.825Z,3.20
2022-07-28T22:37:32.039Z,3.47
2022-07-28T22:40:01.326Z,3.90
2022-07-28T22:42:30.680Z,2.97
2022-07-28T22:45:01.614Z,3.35
2022-07-28T22:47:30.780Z,3.53
2022-07-28T22:49:59.961Z,3.20
2022-07-28T22:52:30.119Z,3.40
2022-07-28T23:00:15.574Z,3.38
2022-07-28T23:02:44.840Z,3.10
2022-07-28T23:05:14.495Z,2.88
2022-07-28T23:07:53.544Z,2.95
2022-07-28T23:10:26.960Z,3.00
2022-07-28T23:12:58.568Z,3.40
2022-07-28T23:15:40.470Z,3.65
2022-07-28T23:18:14.191Z,3.17
2022-07-28T23:20:45.780Z,3.55
2022-07-28T23:23:19.141Z,3.40
2022-07-28T23:25:48.580Z,3.03
2022-07-28T23:28:18.133Z,3.20
2022-07-28T23:30:51.770Z,3.10
2022-07-28T23:33:56.033Z,3.33
2022-07-28T23:36:14.802Z,3.03
2022-07-28T23:39:00.632Z,3.17
2022-07-28T23:41:30.112Z,3.45
2022-07-28T23:43:59.662Z,3.25
2022-07-28T23:46:28.762Z,3.03
2022-07-28T23:48:57.998Z,2.90
2022-07-28T23:51:31.989Z,3.40
2022-07-28T23:54:17.187Z,2.50
2022-07-28T23:56:46.695Z,3.03
2022-07-28T23:59:16.139Z,3.00
